sensor_id;sensor_type;location;lat;lon;timestamp;P1;P2;P0
40569;PMS5003;26270;34.428;-119.710;2023-01-16T00:01:18;10;9;
40569;PMS5003;26270;34.428;-119.710;2023-01-16T00:03:47;6;5;
40569;PMS5003;26270;34.428;-119.710;2023-01-16T00:06:15;6;4;
40569;PMS5003;26270;34.428;-119.710;2023-01-16T00:08:44;4;4;
40569;PMS5003;26270;34.428;-119.710;2023-01-16T00:11:12;3;3;
40569;PMS5003;26270;34.428;-119.710;2023-01-16T00:13:40;7;5;
40569;PMS5003;26270;34.428;-119.710;2023-01-16T00:16:09;7;5;
40569;PMS5003;26270;34.428;-119.710;2023-01-16T00:18:38;9;6;
40569;PMS5003;26270;34.428;-119.710;2023-01-16T00:21:06;5;3;
40569;PMS5003;26270;34.428;-119.710;2023-01-16T00:23:35;8;4;
40569;PMS5003;26270;34.428;-119.710;2023-01-16T00:26:04;3;1;
40569;PMS5003;26270;34.428;-119.710;2023-01-16T00:28:33;3;1;
40569;PMS5003;26270;34.428;-119.710;2023-01-16T00:31:01;4;4;
40569;PMS5003;26270;34.428;-119.710;2023-01-16T00:33:30;2;1;
40569;PMS5003;26270;34.428;-119.710;2023-01-16T00:35:59;5;4;
40569;PMS5003;26270;34.428;-119.710;2023-01-16T00:38:27;3;2;
40569;PMS5003;26270;34.428;-119.710;2023-01-16T00:40:56;2;1;
40569;PMS5003;26270;34.428;-119.710;2023-01-16T00:43:23;4;2;
40569;PMS5003;26270;34.428;-119.710;2023-01-16T00:45:51;2;2;
40569;PMS5003;26270;34.428;-119.710;2023-01-16T00:48:19;2;2;
40569;PMS5003;26270;34.428;-119.710;2023-01-16T00:50:48;4;2;
40569;PMS5003;26270;34.428;-119.710;2023-01-16T00:53:16;4;3;
40569;PMS5003;26270;34.428;-119.710;2023-01-16T00:55:44;9;6;
40569;PMS5003;26270;34.428;-119.710;2023-01-16T00:58:13;6;4;
40569;PMS5003;26270;34.428;-119.710;2023-01-16T01:00:40;7;6;
40569;PMS5003;26270;34.428;-119.710;2023-01-16T01:03:08;8;6;
40569;PMS5003;26270;34.428;-119.710;2023-01-16T01:05:36;8;7;
40569;PMS5003;26270;34.428;-119.710;2023-01-16T01:08:05;6;6;
40569;PMS5003;26270;34.428;-119.710;2023-01-16T01:10:36;5;4;
40569;PMS5003;26270;34.428;-119.710;2023-01-16T01:13:05;9;8;
40569;PMS5003;26270;34.428;-119.710;2023-01-16T01:15:34;14;10;
40569;PMS5003;26270;34.428;-119.710;2023-01-16T01:18:02;13;9;
40569;PMS5003;26270;34.428;-119.710;2023-01-16T01:20:31;7;6;
40569;PMS5003;26270;34.428;-119.710;2023-01-16T01:22:59;6;5;
40569;PMS5003;26270;34.428;-119.710;2023-01-16T01:25:27;9;7;
40569;PMS5003;26270;34.428;-119.710;2023-01-16T01:27:55;8;7;
40569;PMS5003;26270;34.428;-119.710;2023-01-16T01:30:23;8;7;
40569;PMS5003;26270;34.428;-119.710;2023-01-16T01:32:52;8;7;
40569;PMS5003;26270;34.428;-119.710;2023-01-16T01:35:20;9;7;
40569;PMS5003;26270;34.428;-119.710;2023-01-16T01:37:49;10;9;
40569;PMS5003;26270;34.428;-119.710;2023-01-16T01:40:17;14;13;
40569;PMS5003;26270;34.428;-119.710;2023-01-16T01:42:45;11;11;
40569;PMS5003;26270;34.428;-119.710;2023-01-16T01:45:16;8;6;
40569;PMS5003;26270;34.428;-119.710;2023-01-16T01:47:49;6;5;
40569;PMS5003;26270;34.428;-119.710;2023-01-16T01:50:33;7;6;
40569;PMS5003;26270;34.428;-119.710;2023-01-16T01:53:07;7;4;
40569;PMS5003;26270;34.428;-119.710;2023-01-16T01:55:40;6;5;
40569;PMS5003;26270;34.428;-119.710;2023-01-16T01:58:12;6;5;
40569;PMS5003;26270;34.428;-119.710;2023-01-16T02:00:43;7;5;
40569;PMS5003;26270;34.428;-119.710;2023-01-16T02:03:13;5;4;
40569;PMS5003;26270;34.428;-119.710;2023-01-16T02:05:44;3;3;
40569;PMS5003;26270;34.428;-119.710;2023-01-16T02:08:16;4;3;
40569;PMS5003;26270;34.428;-119.710;2023-01-16T02:10:47;6;3;
40569;PMS5003;26270;34.428;-119.710;2023-01-16T02:13:19;5;3;
40569;PMS5003;26270;34.428;-119.710;2023-01-16T02:15:48;7;6;
40569;PMS5003;26270;34.428;-119.710;2023-01-16T02:18:16;15;13;
40569;PMS5003;26270;34.428;-119.710;2023-01-16T02:20:48;15;15;
40569;PMS5003;26270;34.428;-119.710;2023-01-16T02:24:32;14;14;
40569;PMS5003;26270;34.428;-119.710;2023-01-16T02:27:18;17;13;
40569;PMS5003;26270;34.428;-119.710;2023-01-16T02:30:09;10;10;
40569;PMS5003;26270;34.428;-119.710;2023-01-16T02:32:56;14;12;
40569;PMS5003;26270;34.428;-119.710;2023-01-16T02:35:39;17;14;
40569;PMS5003;26270;34.428;-119.710;2023-01-16T02:38:18;15;13;
40569;PMS5003;26270;34.428;-119.710;2023-01-16T02:40:54;13;11;
40569;PMS5003;26270;34.428;-119.710;2023-01-16T02:43:32;9;9;
40569;PMS5003;26270;34.428;-119.710;2023-01-16T02:46:07;8;8;
40569;PMS5003;26270;34.428;-119.710;2023-01-16T02:48:45;8;7;
40569;PMS5003;26270;34.428;-119.710;2023-01-16T02:51:20;8;7;
40569;PMS5003;26270;34.428;-119.710;2023-01-16T02:53:57;5;4;
40569;PMS5003;26270;34.428;-119.710;2023-01-16T02:56:30;8;7;
40569;PMS5003;26270;34.428;-119.710;2023-01-16T02:59:05;9;8;
40569;PMS5003;26270;34.428;-119.710;2023-01-16T03:01:34;7;6;
40569;PMS5003;26270;34.428;-119.710;2023-01-16T03:04:03;8;7;
40569;PMS5003;26270;34.428;-119.710;2023-01-16T03:07:04;13;9;
40569;PMS5003;26270;34.428;-119.710;2023-01-16T03:10:21;12;11;
40569;PMS5003;26270;34.428;-119.710;2023-01-16T03:13:08;8;8;
40569;PMS5003;26270;34.428;-119.710;2023-01-16T03:15:46;4;4;
40569;PMS5003;26270;34.428;-119.710;2023-01-16T03:18:26;5;3;
40569;PMS5003;26270;34.428;-119.710;2023-01-16T03:21:02;3;3;
40569;PMS5003;26270;34.428;-119.710;2023-01-16T03:23:39;3;3;
40569;PMS5003;26270;34.428;-119.710;2023-01-16T03:26:17;5;4;
40569;PMS5003;26270;34.428;-119.710;2023-01-16T03:28:55;3;2;
40569;PMS5003;26270;34.428;-119.710;2023-01-16T03:31:36;4;3;
40569;PMS5003;26270;34.428;-119.710;2023-01-16T03:34:14;3;3;
40569;PMS5003;26270;34.428;-119.710;2023-01-16T03:36:52;1;1;
40569;PMS5003;26270;34.428;-119.710;2023-01-16T03:39:23;4;2;
40569;PMS5003;26270;34.428;-119.710;2023-01-16T03:41:57;2;2;
40569;PMS5003;26270;34.428;-119.710;2023-01-16T03:44:33;2;2;
40569;PMS5003;26270;34.428;-119.710;2023-01-16T03:47:06;2;2;
40569;PMS5003;26270;34.428;-119.710;2023-01-16T03:49:40;2;2;
40569;PMS5003;26270;34.428;-119.710;2023-01-16T03:52:14;2;2;
40569;PMS5003;26270;34.428;-119.710;2023-01-16T03:54:48;3;3;
40569;PMS5003;26270;34.428;-119.710;2023-01-16T03:57:24;3;3;
40569;PMS5003;26270;34.428;-119.710;2023-01-16T03:59:56;2;2;
40569;PMS5003;26270;34.428;-119.710;2023-01-16T04:02:27;4;3;
40569;PMS5003;26270;34.428;-119.710;2023-01-16T04:05:03;4;3;
40569;PMS5003;26270;34.428;-119.710;2023-01-16T04:07:37;2;2;
40569;PMS5003;26270;34.428;-119.710;2023-01-16T04:10:11;2;2;
40569;PMS5003;26270;34.428;-119.710;2023-01-16T04:12:43;2;1;
40569;PMS5003;26270;34.428;-119.710;2023-01-16T04:15:16;1;1;
40569;PMS5003;26270;34.428;-119.710;2023-01-16T04:17:46;0;0;
40569;PMS5003;26270;34.428;-119.710;2023-01-16T04:20:15;1;1;
40569;PMS5003;26270;34.428;-119.710;2023-01-16T04:22:46;1;1;
40569;PMS5003;26270;34.428;-119.710;2023-01-16T04:25:16;1;1;
40569;PMS5003;26270;34.428;-119.710;2023-01-16T04:27:45;0;0;
40569;PMS5003;26270;34.428;-119.710;2023-01-16T04:30:14;0;0;
40569;PMS5003;26270;34.428;-119.710;2023-01-16T04:32:42;1;1;
40569;PMS5003;26270;34.428;-119.710;2023-01-16T04:35:11;0;0;
40569;PMS5003;26270;34.428;-119.710;2023-01-16T04:37:39;2;1;
40569;PMS5003;26270;34.428;-119.710;2023-01-16T04:40:08;2;2;
40569;PMS5003;26270;34.428;-119.710;2023-01-16T04:42:38;1;1;
40569;PMS5003;26270;34.428;-119.710;2023-01-16T04:45:07;1;1;
40569;PMS5003;26270;34.428;-119.710;2023-01-16T04:47:36;1;1;
40569;PMS5003;26270;34.428;-119.710;2023-01-16T04:50:04;1;1;
40569;PMS5003;26270;34.428;-119.710;2023-01-16T04:52:33;1;1;
40569;PMS5003;26270;34.428;-119.710;2023-01-16T04:55:01;0;0;
40569;PMS5003;26270;34.428;-119.710;2023-01-16T04:57:28;0;0;
40569;PMS5003;26270;34.428;-119.710;2023-01-16T04:59:56;1;1;
40569;PMS5003;26270;34.428;-119.710;2023-01-16T05:03:19;1;1;
40569;PMS5003;26270;34.428;-119.710;2023-01-16T05:05:48;1;1;
40569;PMS5003;26270;34.428;-119.710;2023-01-16T05:08:16;1;1;
40569;PMS5003;26270;34.428;-119.710;2023-01-16T05:10:44;1;1;
40569;PMS5003;26270;34.428;-119.710;2023-01-16T05:13:12;1;1;
40569;PMS5003;26270;34.428;-119.710;2023-01-16T05:15:42;1;1;
40569;PMS5003;26270;34.428;-119.710;2023-01-16T05:18:10;1;1;
40569;PMS5003;26270;34.428;-119.710;2023-01-16T05:20:39;2;1;
40569;PMS5003;26270;34.428;-119.710;2023-01-16T05:23:07;1;1;
40569;PMS5003;26270;34.428;-119.710;2023-01-16T05:25:36;1;1;
40569;PMS5003;26270;34.428;-119.710;2023-01-16T05:28:04;2;2;
40569;PMS5003;26270;34.428;-119.710;2023-01-16T05:30:33;2;1;
40569;PMS5003;26270;34.428;-119.710;2023-01-16T05:33:01;2;1;
40569;PMS5003;26270;34.428;-119.710;2023-01-16T05:35:29;0;0;
40569;PMS5003;26270;34.428;-119.710;2023-01-16T05:37:58;1;0;
40569;PMS5003;26270;34.428;-119.710;2023-01-16T05:40:27;0;0;
40569;PMS5003;26270;34.428;-119.710;2023-01-16T05:42:55;0;0;
40569;PMS5003;26270;34.428;-119.710;2023-01-16T05:45:22;1;0;
40569;PMS5003;26270;34.428;-119.710;2023-01-16T05:47:50;0;0;
40569;PMS5003;26270;34.428;-119.710;2023-01-16T05:50:19;1;0;
40569;PMS5003;26270;34.428;-119.710;2023-01-16T05:52:47;0;0;
40569;PMS5003;26270;34.428;-119.710;2023-01-16T05:55:14;1;0;
40569;PMS5003;26270;34.428;-119.710;2023-01-16T05:57:43;0;0;
40569;PMS5003;26270;34.428;-119.710;2023-01-16T06:00:11;0;0;
40569;PMS5003;26270;34.428;-119.710;2023-01-16T06:02:39;0;0;
40569;PMS5003;26270;34.428;-119.710;2023-01-16T06:05:08;0;0;
40569;PMS5003;26270;34.428;-119.710;2023-01-16T06:07:36;0;0;
40569;PMS5003;26270;34.428;-119.710;2023-01-16T06:10:05;0;0;
40569;PMS5003;26270;34.428;-119.710;2023-01-16T06:12:34;0;0;
40569;PMS5003;26270;34.428;-119.710;2023-01-16T06:15:02;0;0;
40569;PMS5003;26270;34.428;-119.710;2023-01-16T06:17:31;0;0;
40569;PMS5003;26270;34.428;-119.710;2023-01-16T06:19:59;1;0;
40569;PMS5003;26270;34.428;-119.710;2023-01-16T06:22:27;0;0;
40569;PMS5003;26270;34.428;-119.710;2023-01-16T06:24:55;0;0;
40569;PMS5003;26270;34.428;-119.710;2023-01-16T06:27:23;0;0;
40569;PMS5003;26270;34.428;-119.710;2023-01-16T06:29:51;0;0;
40569;PMS5003;26270;34.428;-119.710;2023-01-16T06:32:20;0;0;
40569;PMS5003;26270;34.428;-119.710;2023-01-16T06:34:48;0;0;
40569;PMS5003;26270;34.428;-119.710;2023-01-16T06:37:16;0;0;
40569;PMS5003;26270;34.428;-119.710;2023-01-16T06:39:44;0;0;
40569;PMS5003;26270;34.428;-119.710;2023-01-16T06:42:13;0;0;
40569;PMS5003;26270;34.428;-119.710;2023-01-16T06:44:45;0;0;
40569;PMS5003;26270;34.428;-119.710;2023-01-16T06:47:13;0;0;
40569;PMS5003;26270;34.428;-119.710;2023-01-16T06:49:41;0;0;
40569;PMS5003;26270;34.428;-119.710;2023-01-16T06:52:09;0;0;
40569;PMS5003;26270;34.428;-119.710;2023-01-16T06:54:37;0;0;
40569;PMS5003;26270;34.428;-119.710;2023-01-16T06:57:05;0;0;
40569;PMS5003;26270;34.428;-119.710;2023-01-16T06:59:33;0;0;
40569;PMS5003;26270;34.428;-119.710;2023-01-16T07:02:02;0;0;
40569;PMS5003;26270;34.428;-119.710;2023-01-16T07:04:30;0;0;
40569;PMS5003;26270;34.428;-119.710;2023-01-16T07:06:58;1;1;
40569;PMS5003;26270;34.428;-119.710;2023-01-16T07:09:25;0;0;
40569;PMS5003;26270;34.428;-119.710;2023-01-16T07:11:53;0;0;
40569;PMS5003;26270;34.428;-119.710;2023-01-16T07:14:22;0;0;
40569;PMS5003;26270;34.428;-119.710;2023-01-16T07:16:49;0;0;
40569;PMS5003;26270;34.428;-119.710;2023-01-16T07:19:18;0;0;
40569;PMS5003;26270;34.428;-119.710;2023-01-16T07:21:46;0;0;
40569;PMS5003;26270;34.428;-119.710;2023-01-16T07:24:16;0;0;
40569;PMS5003;26270;34.428;-119.710;2023-01-16T07:26:48;0;0;
40569;PMS5003;26270;34.428;-119.710;2023-01-16T07:29:22;0;0;
40569;PMS5003;26270;34.428;-119.710;2023-01-16T07:31:51;0;0;
40569;PMS5003;26270;34.428;-119.710;2023-01-16T07:34:20;0;0;
40569;PMS5003;26270;34.428;-119.710;2023-01-16T07:36:48;0;0;
40569;PMS5003;26270;34.428;-119.710;2023-01-16T07:39:16;0;0;
40569;PMS5003;26270;34.428;-119.710;2023-01-16T07:41:44;0;0;
40569;PMS5003;26270;34.428;-119.710;2023-01-16T07:44:12;0;0;
40569;PMS5003;26270;34.428;-119.710;2023-01-16T07:46:40;0;0;
40569;PMS5003;26270;34.428;-119.710;2023-01-16T07:49:07;0;0;
40569;PMS5003;26270;34.428;-119.710;2023-01-16T07:51:35;0;0;
40569;PMS5003;26270;34.428;-119.710;2023-01-16T07:54:03;0;0;
40569;PMS5003;26270;34.428;-119.710;2023-01-16T07:56:31;0;0;
40569;PMS5003;26270;34.428;-119.710;2023-01-16T07:59:00;0;0;
40569;PMS5003;26270;34.428;-119.710;2023-01-16T08:01:28;0;0;
40569;PMS5003;26270;34.428;-119.710;2023-01-16T08:03:56;0;0;
40569;PMS5003;26270;34.428;-119.710;2023-01-16T08:06:25;0;0;
40569;PMS5003;26270;34.428;-119.710;2023-01-16T08:08:54;0;0;
40569;PMS5003;26270;34.428;-119.710;2023-01-16T08:11:22;0;0;
40569;PMS5003;26270;34.428;-119.710;2023-01-16T08:13:50;0;0;
40569;PMS5003;26270;34.428;-119.710;2023-01-16T08:16:19;0;0;
40569;PMS5003;26270;34.428;-119.710;2023-01-16T08:18:47;0;0;
40569;PMS5003;26270;34.428;-119.710;2023-01-16T08:21:15;0;0;
40569;PMS5003;26270;34.428;-119.710;2023-01-16T08:23:44;1;0;
40569;PMS5003;26270;34.428;-119.710;2023-01-16T08:26:13;0;0;
40569;PMS5003;26270;34.428;-119.710;2023-01-16T08:28:41;0;0;
40569;PMS5003;26270;34.428;-119.710;2023-01-16T08:31:10;0;0;
40569;PMS5003;26270;34.428;-119.710;2023-01-16T08:33:40;0;0;
40569;PMS5003;26270;34.428;-119.710;2023-01-16T08:36:10;0;0;
40569;PMS5003;26270;34.428;-119.710;2023-01-16T08:38:39;0;0;
40569;PMS5003;26270;34.428;-119.710;2023-01-16T08:41:07;0;0;
40569;PMS5003;26270;34.428;-119.710;2023-01-16T08:43:35;0;0;
40569;PMS5003;26270;34.428;-119.710;2023-01-16T08:46:03;0;0;
40569;PMS5003;26270;34.428;-119.710;2023-01-16T08:48:34;0;0;
40569;PMS5003;26270;34.428;-119.710;2023-01-16T08:51:02;0;0;
40569;PMS5003;26270;34.428;-119.710;2023-01-16T08:53:30;0;0;
40569;PMS5003;26270;34.428;-119.710;2023-01-16T08:55:58;0;0;
40569;PMS5003;26270;34.428;-119.710;2023-01-16T08:58:26;0;0;
40569;PMS5003;26270;34.428;-119.710;2023-01-16T09:00:54;0;0;
40569;PMS5003;26270;34.428;-119.710;2023-01-16T09:03:23;0;0;
40569;PMS5003;26270;34.428;-119.710;2023-01-16T09:05:51;0;0;
40569;PMS5003;26270;34.428;-119.710;2023-01-16T09:08:18;0;0;
40569;PMS5003;26270;34.428;-119.710;2023-01-16T09:10:46;0;0;
40569;PMS5003;26270;34.428;-119.710;2023-01-16T09:13:14;0;0;
40569;PMS5003;26270;34.428;-119.710;2023-01-16T09:15:42;1;0;
40569;PMS5003;26270;34.428;-119.710;2023-01-16T09:18:10;0;0;
40569;PMS5003;26270;34.428;-119.710;2023-01-16T09:20:38;0;0;
40569;PMS5003;26270;34.428;-119.710;2023-01-16T09:23:06;0;0;
40569;PMS5003;26270;34.428;-119.710;2023-01-16T09:25:35;0;0;
40569;PMS5003;26270;34.428;-119.710;2023-01-16T09:28:04;0;0;
40569;PMS5003;26270;34.428;-119.710;2023-01-16T09:30:32;0;0;
40569;PMS5003;26270;34.428;-119.710;2023-01-16T09:32:59;0;0;
40569;PMS5003;26270;34.428;-119.710;2023-01-16T09:35:28;0;0;
40569;PMS5003;26270;34.428;-119.710;2023-01-16T09:37:55;0;0;
40569;PMS5003;26270;34.428;-119.710;2023-01-16T09:40:23;0;0;
40569;PMS5003;26270;34.428;-119.710;2023-01-16T09:42:53;0;0;
40569;PMS5003;26270;34.428;-119.710;2023-01-16T09:45:31;0;0;
40569;PMS5003;26270;34.428;-119.710;2023-01-16T09:48:01;0;0;
40569;PMS5003;26270;34.428;-119.710;2023-01-16T09:50:35;0;0;
40569;PMS5003;26270;34.428;-119.710;2023-01-16T09:53:09;0;0;
40569;PMS5003;26270;34.428;-119.710;2023-01-16T09:55:44;0;0;
40569;PMS5003;26270;34.428;-119.710;2023-01-16T09:58:13;0;0;
40569;PMS5003;26270;34.428;-119.710;2023-01-16T10:00:46;0;0;
40569;PMS5003;26270;34.428;-119.710;2023-01-16T10:03:14;0;0;
40569;PMS5003;26270;34.428;-119.710;2023-01-16T10:05:45;0;0;
40569;PMS5003;26270;34.428;-119.710;2023-01-16T10:08:20;0;0;
40569;PMS5003;26270;34.428;-119.710;2023-01-16T10:11:01;0;0;
40569;PMS5003;26270;34.428;-119.710;2023-01-16T10:13:48;0;0;
40569;PMS5003;26270;34.428;-119.710;2023-01-16T10:16:31;0;0;
40569;PMS5003;26270;34.428;-119.710;2023-01-16T10:19:14;0;0;
40569;PMS5003;26270;34.428;-119.710;2023-01-16T10:21:53;0;0;
40569;PMS5003;26270;34.428;-119.710;2023-01-16T10:24:36;0;0;
40569;PMS5003;26270;34.428;-119.710;2023-01-16T10:27:16;0;0;
40569;PMS5003;26270;34.428;-119.710;2023-01-16T10:29:49;0;0;
40569;PMS5003;26270;34.428;-119.710;2023-01-16T10:32:24;0;0;
40569;PMS5003;26270;34.428;-119.710;2023-01-16T10:34:58;0;0;
40569;PMS5003;26270;34.428;-119.710;2023-01-16T10:37:31;0;0;
40569;PMS5003;26270;34.428;-119.710;2023-01-16T10:40:00;0;0;
40569;PMS5003;26270;34.428;-119.710;2023-01-16T10:42:39;0;0;
40569;PMS5003;26270;34.428;-119.710;2023-01-16T10:45:12;0;0;
40569;PMS5003;26270;34.428;-119.710;2023-01-16T10:47:41;0;0;
40569;PMS5003;26270;34.428;-119.710;2023-01-16T10:50:10;0;0;
40569;PMS5003;26270;34.428;-119.710;2023-01-16T10:52:38;0;0;
40569;PMS5003;26270;34.428;-119.710;2023-01-16T10:55:08;0;0;
40569;PMS5003;26270;34.428;-119.710;2023-01-16T10:57:43;0;0;
40569;PMS5003;26270;34.428;-119.710;2023-01-16T11:00:17;0;0;
40569;PMS5003;26270;34.428;-119.710;2023-01-16T11:00:21;0;0;
40569;PMS5003;26270;34.428;-119.710;2023-01-16T11:02:52;0;0;
40569;PMS5003;26270;34.428;-119.710;2023-01-16T11:05:26;0;0;
40569;PMS5003;26270;34.428;-119.710;2023-01-16T11:08:04;0;0;
40569;PMS5003;26270;34.428;-119.710;2023-01-16T11:10:33;1;1;
40569;PMS5003;26270;34.428;-119.710;2023-01-16T11:13:01;0;0;
40569;PMS5003;26270;34.428;-119.710;2023-01-16T11:15:29;0;0;
40569;PMS5003;26270;34.428;-119.710;2023-01-16T11:17:58;0;0;
40569;PMS5003;26270;34.428;-119.710;2023-01-16T11:20:27;0;0;
40569;PMS5003;26270;34.428;-119.710;2023-01-16T11:22:59;1;0;
40569;PMS5003;26270;34.428;-119.710;2023-01-16T11:25:31;0;0;
40569;PMS5003;26270;34.428;-119.710;2023-01-16T11:28:00;0;0;
40569;PMS5003;26270;34.428;-119.710;2023-01-16T11:30:32;0;0;
40569;PMS5003;26270;34.428;-119.710;2023-01-16T11:33:04;0;0;
40569;PMS5003;26270;34.428;-119.710;2023-01-16T11:35:40;0;0;
40569;PMS5003;26270;34.428;-119.710;2023-01-16T11:38:18;1;1;
40569;PMS5003;26270;34.428;-119.710;2023-01-16T11:40:47;0;0;
40569;PMS5003;26270;34.428;-119.710;2023-01-16T11:43:17;0;0;
40569;PMS5003;26270;34.428;-119.710;2023-01-16T11:45:50;0;0;
40569;PMS5003;26270;34.428;-119.710;2023-01-16T11:48:23;0;0;
40569;PMS5003;26270;34.428;-119.710;2023-01-16T11:50:51;0;0;
40569;PMS5003;26270;34.428;-119.710;2023-01-16T11:53:21;0;0;
40569;PMS5003;26270;34.428;-119.710;2023-01-16T11:55:58;0;0;
40569;PMS5003;26270;34.428;-119.710;2023-01-16T11:58:56;0;0;
40569;PMS5003;26270;34.428;-119.710;2023-01-16T12:01:36;0;0;
40569;PMS5003;26270;34.428;-119.710;2023-01-16T12:04:13;0;0;
40569;PMS5003;26270;34.428;-119.710;2023-01-16T12:06:48;0;0;
40569;PMS5003;26270;34.428;-119.710;2023-01-16T12:09:31;0;0;
40569;PMS5003;26270;34.428;-119.710;2023-01-16T12:12:15;0;0;
40569;PMS5003;26270;34.428;-119.710;2023-01-16T12:14:46;0;0;
40569;PMS5003;26270;34.428;-119.710;2023-01-16T12:17:22;0;0;
40569;PMS5003;26270;34.428;-119.710;2023-01-16T12:20:02;0;0;
40569;PMS5003;26270;34.428;-119.710;2023-01-16T12:22:43;0;0;
40569;PMS5003;26270;34.428;-119.710;2023-01-16T12:25:24;0;0;
40569;PMS5003;26270;34.428;-119.710;2023-01-16T12:28:01;0;0;
40569;PMS5003;26270;34.428;-119.710;2023-01-16T12:30:45;0;0;
40569;PMS5003;26270;34.428;-119.710;2023-01-16T12:33:28;0;0;
40569;PMS5003;26270;34.428;-119.710;2023-01-16T12:36:06;0;0;
40569;PMS5003;26270;34.428;-119.710;2023-01-16T12:38:40;0;0;
40569;PMS5003;26270;34.428;-119.710;2023-01-16T12:41:19;1;0;
40569;PMS5003;26270;34.428;-119.710;2023-01-16T12:43:51;0;0;
40569;PMS5003;26270;34.428;-119.710;2023-01-16T12:46:31;0;0;
40569;PMS5003;26270;34.428;-119.710;2023-01-16T12:49:13;0;0;
40569;PMS5003;26270;34.428;-119.710;2023-01-16T12:51:56;0;0;
40569;PMS5003;26270;34.428;-119.710;2023-01-16T12:54:36;0;0;
40569;PMS5003;26270;34.428;-119.710;2023-01-16T12:57:18;0;0;
40569;PMS5003;26270;34.428;-119.710;2023-01-16T13:00:01;1;0;
40569;PMS5003;26270;34.428;-119.710;2023-01-16T13:02:34;0;0;
40569;PMS5003;26270;34.428;-119.710;2023-01-16T13:05:08;0;0;
40569;PMS5003;26270;34.428;-119.710;2023-01-16T13:07:42;0;0;
40569;PMS5003;26270;34.428;-119.710;2023-01-16T13:10:17;1;0;
40569;PMS5003;26270;34.428;-119.710;2023-01-16T13:12:49;1;1;
40569;PMS5003;26270;34.428;-119.710;2023-01-16T13:15:20;1;0;
40569;PMS5003;26270;34.428;-119.710;2023-01-16T13:17:54;0;0;
40569;PMS5003;26270;34.428;-119.710;2023-01-16T13:20:26;0;0;
40569;PMS5003;26270;34.428;-119.710;2023-01-16T13:22:58;1;0;
40569;PMS5003;26270;34.428;-119.710;2023-01-16T13:25:30;0;0;
40569;PMS5003;26270;34.428;-119.710;2023-01-16T13:28:02;0;0;
40569;PMS5003;26270;34.428;-119.710;2023-01-16T13:30:38;0;0;
40569;PMS5003;26270;34.428;-119.710;2023-01-16T13:33:09;0;0;
40569;PMS5003;26270;34.428;-119.710;2023-01-16T13:35:41;0;0;
40569;PMS5003;26270;34.428;-119.710;2023-01-16T13:38:19;0;0;
40569;PMS5003;26270;34.428;-119.710;2023-01-16T13:41:09;0;0;
40569;PMS5003;26270;34.428;-119.710;2023-01-16T13:43:45;0;0;
40569;PMS5003;26270;34.428;-119.710;2023-01-16T13:46:16;0;0;
40569;PMS5003;26270;34.428;-119.710;2023-01-16T13:48:50;0;0;
40569;PMS5003;26270;34.428;-119.710;2023-01-16T13:51:20;0;0;
40569;PMS5003;26270;34.428;-119.710;2023-01-16T13:53:50;0;0;
40569;PMS5003;26270;34.428;-119.710;2023-01-16T13:56:22;0;0;
40569;PMS5003;26270;34.428;-119.710;2023-01-16T13:58:53;0;0;
40569;PMS5003;26270;34.428;-119.710;2023-01-16T14:01:30;0;0;
40569;PMS5003;26270;34.428;-119.710;2023-01-16T14:04:38;0;0;
40569;PMS5003;26270;34.428;-119.710;2023-01-16T14:07:21;0;0;
40569;PMS5003;26270;34.428;-119.710;2023-01-16T14:10:16;0;0;
40569;PMS5003;26270;34.428;-119.710;2023-01-16T14:12:59;0;0;
40569;PMS5003;26270;34.428;-119.710;2023-01-16T14:16:23;0;0;
40569;PMS5003;26270;34.428;-119.710;2023-01-16T14:19:00;1;0;
40569;PMS5003;26270;34.428;-119.710;2023-01-16T14:21:46;0;0;
40569;PMS5003;26270;34.428;-119.710;2023-01-16T14:24:16;0;0;
40569;PMS5003;26270;34.428;-119.710;2023-01-16T14:26:49;0;0;
40569;PMS5003;26270;34.428;-119.710;2023-01-16T14:29:21;4;4;
40569;PMS5003;26270;34.428;-119.710;2023-01-16T14:31:54;7;7;
40569;PMS5003;26270;34.428;-119.710;2023-01-16T14:34:27;2;2;
40569;PMS5003;26270;34.428;-119.710;2023-01-16T14:37:01;4;4;
40569;PMS5003;26270;34.428;-119.710;2023-01-16T14:39:33;3;3;
40569;PMS5003;26270;34.428;-119.710;2023-01-16T14:42:06;3;2;
40569;PMS5003;26270;34.428;-119.710;2023-01-16T14:44:58;0;0;
40569;PMS5003;26270;34.428;-119.710;2023-01-16T14:47:45;2;0;
40569;PMS5003;26270;34.428;-119.710;2023-01-16T14:50:38;0;0;
40569;PMS5003;26270;34.428;-119.710;2023-01-16T14:53:14;4;1;
40569;PMS5003;26270;34.428;-119.710;2023-01-16T14:55:47;1;1;
40569;PMS5003;26270;34.428;-119.710;2023-01-16T14:58:20;1;0;
40569;PMS5003;26270;34.428;-119.710;2023-01-16T15:00:56;1;1;
40569;PMS5003;26270;34.428;-119.710;2023-01-16T15:03:27;0;0;
40569;PMS5003;26270;34.428;-119.710;2023-01-16T15:05:57;2;0;
40569;PMS5003;26270;34.428;-119.710;2023-01-16T15:08:28;2;1;
40569;PMS5003;26270;34.428;-119.710;2023-01-16T15:11:04;1;0;
40569;PMS5003;26270;34.428;-119.710;2023-01-16T15:13:35;5;0;
40569;PMS5003;26270;34.428;-119.710;2023-01-16T15:16:04;0;0;
40569;PMS5003;26270;34.428;-119.710;2023-01-16T15:18:40;1;0;
40569;PMS5003;26270;34.428;-119.710;2023-01-16T15:21:11;0;0;
40569;PMS5003;26270;34.428;-119.710;2023-01-16T15:23:40;0;0;
40569;PMS5003;26270;34.428;-119.710;2023-01-16T15:26:15;0;0;
40569;PMS5003;26270;34.428;-119.710;2023-01-16T15:29:13;0;0;
40569;PMS5003;26270;34.428;-119.710;2023-01-16T15:31:54;1;1;
40569;PMS5003;26270;34.428;-119.710;2023-01-16T15:34:24;0;0;
40569;PMS5003;26270;34.428;-119.710;2023-01-16T15:36:54;0;0;
40569;PMS5003;26270;34.428;-119.710;2023-01-16T15:39:25;0;0;
40569;PMS5003;26270;34.428;-119.710;2023-01-16T15:42:00;2;1;
40569;PMS5003;26270;34.428;-119.710;2023-01-16T15:44:30;0;0;
40569;PMS5003;26270;34.428;-119.710;2023-01-16T15:47:04;1;0;
40569;PMS5003;26270;34.428;-119.710;2023-01-16T15:49:45;0;0;
40569;PMS5003;26270;34.428;-119.710;2023-01-16T15:52:21;1;0;
40569;PMS5003;26270;34.428;-119.710;2023-01-16T15:54:54;0;0;
40569;PMS5003;26270;34.428;-119.710;2023-01-16T15:57:23;1;0;
40569;PMS5003;26270;34.428;-119.710;2023-01-16T15:59:53;1;0;
40569;PMS5003;26270;34.428;-119.710;2023-01-16T16:02:23;1;0;
40569;PMS5003;26270;34.428;-119.710;2023-01-16T16:04:53;0;0;
40569;PMS5003;26270;34.428;-119.710;2023-01-16T16:07:24;0;0;
40569;PMS5003;26270;34.428;-119.710;2023-01-16T16:09:53;0;0;
40569;PMS5003;26270;34.428;-119.710;2023-01-16T16:12:24;0;0;
40569;PMS5003;26270;34.428;-119.710;2023-01-16T16:15:06;0;0;
40569;PMS5003;26270;34.428;-119.710;2023-01-16T16:17:44;0;0;
40569;PMS5003;26270;34.428;-119.710;2023-01-16T16:20:29;0;0;
40569;PMS5003;26270;34.428;-119.710;2023-01-16T16:23:02;0;0;
40569;PMS5003;26270;34.428;-119.710;2023-01-16T16:25:36;0;0;
40569;PMS5003;26270;34.428;-119.710;2023-01-16T16:28:16;0;0;
40569;PMS5003;26270;34.428;-119.710;2023-01-16T16:30:48;1;0;
40569;PMS5003;26270;34.428;-119.710;2023-01-16T16:33:23;0;0;
40569;PMS5003;26270;34.428;-119.710;2023-01-16T16:35:53;1;0;